Time;durP1;ratioP1;P1;durP2;ratioP2;P2;SDS_P1;SDS_P2;PMS_P1;PMS_P2;Temp;Humidity;BMP_temperature;BMP_pressure;BME280_temperature;BME280_humidity;BME280_pressure;Samples;Min_cycle;Max_cycle;Signal;HPM_P1;HPM_P2
2023/12/09 00:01:13;;;;;;;16.05;10.75;;;;;;;;;;5041791;28;20448;-65
2023/12/09 00:03:40;;;;;;;17.27;11.85;;;;;;;;;;5037650;28;20045;-65
2023/12/09 00:06:09;;;;;;;16.63;11.32;;;;;;;;;;5031807;28;20591;-67
2023/12/09 00:08:53;;;;;;;18.75;12.30;;;;;;;;;;5025419;28;20128;-66
2023/12/09 00:11:30;;;;;;;16.40;10.98;;;;;;;;;;5027519;28;20060;-69
2023/12/09 00:14:07;;;;;;;21.10;10.90;;;;;;;;;;5000749;28;20504;-65
2023/12/09 00:16:36;;;;;;;18.15;11.07;;;;;;;;;;5038797;28;20121;-65
2023/12/09 00:19:16;;;;;;;19.38;12.20;;;;;;;;;;5049916;28;20048;-67
2023/12/09 00:21:52;;;;;;;15.90;11.85;;;;;;;;;;5029620;28;20047;-67
2023/12/09 00:24:22;;;;;;;13.98;9.88;;;;;;;;;;5060201;28;20656;-67
2023/12/09 00:26:53;;;;;;;17.02;12.30;;;;;;;;;;5049519;28;20110;-68
2023/12/09 00:29:39;;;;;;;18.30;11.13;;;;;;;;;;5041550;28;20044;-67
2023/12/09 00:32:17;;;;;;;14.68;10.43;;;;;;;;;;5046894;28;20040;-67
2023/12/09 00:34:51;;;;;;;18.42;10.57;;;;;;;;;;5032581;28;20053;-67
2023/12/09 00:37:21;;;;;;;16.60;10.82;;;;;;;;;;5030443;28;20987;-64
2023/12/09 00:39:51;;;;;;;14.80;11.07;;;;;;;;;;5029186;28;20924;-67
2023/12/09 00:42:21;;;;;;;16.15;11.30;;;;;;;;;;5028431;28;21042;-67
2023/12/09 00:44:50;;;;;;;16.80;11.32;;;;;;;;;;5028500;28;20469;-65
2023/12/09 00:47:21;;;;;;;15.73;11.07;;;;;;;;;;5034184;28;20740;-67
2023/12/09 00:49:53;;;;;;;21.58;12.48;;;;;;;;;;5038607;28;20055;-67
2023/12/09 00:52:22;;;;;;;16.85;11.93;;;;;;;;;;5051147;28;20080;-67
2023/12/09 00:54:51;;;;;;;16.92;11.15;;;;;;;;;;5047315;28;20553;-66
2023/12/09 00:57:26;;;;;;;16.10;11.70;;;;;;;;;;5037880;28;20717;-67
2023/12/09 01:00:00;;;;;;;19.25;12.55;;;;;;;;;;5034897;28;20061;-67
2023/12/09 01:02:32;;;;;;;14.35;11.02;;;;;;;;;;5037968;28;20145;-66
2023/12/09 01:04:58;;;;;;;16.55;11.27;;;;;;;;;;5042451;28;20132;-67
2023/12/09 01:07:30;;;;;;;14.52;10.75;;;;;;;;;;5037519;28;20044;-66
2023/12/09 01:09:57;;;;;;;17.63;10.68;;;;;;;;;;5061132;28;20139;-66
2023/12/09 01:12:23;;;;;;;15.60;11.15;;;;;;;;;;5042851;28;20481;-66
2023/12/09 01:14:52;;;;;;;19.23;11.55;;;;;;;;;;5053946;28;20433;-67
2023/12/09 01:17:20;;;;;;;16.38;10.15;;;;;;;;;;5042698;28;20079;-67
2023/12/09 01:19:55;;;;;;;17.30;11.52;;;;;;;;;;5041076;28;20053;-65
2023/12/09 01:22:22;;;;;;;13.95;9.90;;;;;;;;;;5032595;28;20822;-66
2023/12/09 01:24:57;;;;;;;19.38;12.48;;;;;;;;;;5045488;28;20048;-67
2023/12/09 01:27:24;;;;;;;16.10;10.55;;;;;;;;;;5026113;28;20080;-65
2023/12/09 01:30:10;;;;;;;15.80;10.60;;;;;;;;;;5055901;28;20650;-66
2023/12/09 01:32:37;;;;;;;15.15;11.02;;;;;;;;;;5026842;28;20580;-67
2023/12/09 01:35:04;;;;;;;16.75;10.77;;;;;;;;;;5016743;28;20127;-66
2023/12/09 01:37:30;;;;;;;16.88;10.90;;;;;;;;;;5046326;28;20042;-65
2023/12/09 01:39:57;;;;;;;18.02;12.00;;;;;;;;;;5046299;28;20098;-65
2023/12/09 01:42:26;;;;;;;18.23;11.57;;;;;;;;;;5043155;28;21061;-67
2023/12/09 01:44:59;;;;;;;20.92;12.38;;;;;;;;;;5044591;28;20076;-64
2023/12/09 01:47:26;;;;;;;17.17;11.88;;;;;;;;;;5044214;28;20063;-70
2023/12/09 01:49:55;;;;;;;16.52;11.85;;;;;;;;;;5047893;28;20068;-66
2023/12/09 01:52:21;;;;;;;15.05;10.68;;;;;;;;;;5039403;28;20052;-67
2023/12/09 01:54:48;;;;;;;18.58;11.20;;;;;;;;;;5039392;28;20418;-66
2023/12/09 01:57:18;;;;;;;17.38;11.25;;;;;;;;;;5028502;28;20052;-65
2023/12/09 01:59:50;;;;;;;19.83;12.57;;;;;;;;;;5035934;28;20507;-65
2023/12/09 02:02:19;;;;;;;17.80;10.60;;;;;;;;;;5034576;28;20072;-66
2023/12/09 02:04:46;;;;;;;17.05;11.05;;;;;;;;;;5043989;28;20570;-65
2023/12/09 02:07:17;;;;;;;16.58;11.35;;;;;;;;;;5035091;28;20053;-64
2023/12/09 02:09:44;;;;;;;20.40;10.93;;;;;;;;;;5035145;28;20515;-67
2023/12/09 02:12:53;;;;;;;16.33;10.98;;;;;;;;;;5034723;28;20049;-65
2023/12/09 02:15:29;;;;;;;19.17;11.82;;;;;;;;;;5033160;28;20041;-65
2023/12/09 02:18:04;;;;;;;20.15;11.73;;;;;;;;;;5028248;28;20049;-65
2023/12/09 02:20:43;;;;;;;17.13;10.65;;;;;;;;;;5036943;28;20037;-62
2023/12/09 02:23:37;;;;;;;15.90;9.82;;;;;;;;;;5036964;28;20041;-65
2023/12/09 02:26:27;;;;;;;16.02;10.98;;;;;;;;;;5026443;28;20045;-64
2023/12/09 02:29:07;;;;;;;17.05;11.18;;;;;;;;;;5034876;28;20049;-63
2023/12/09 02:31:43;;;;;;;17.17;11.63;;;;;;;;;;5023837;28;20053;-65
2023/12/09 02:34:12;;;;;;;17.50;11.63;;;;;;;;;;5040323;28;20068;-63
2023/12/09 02:36:55;;;;;;;20.42;11.48;;;;;;;;;;5039933;28;20055;-65
2023/12/09 02:39:36;;;;;;;21.65;11.43;;;;;;;;;;5030935;28;20045;-63
2023/12/09 02:42:18;;;;;;;16.98;10.23;;;;;;;;;;5038020;28;20430;-66
2023/12/09 02:44:48;;;;;;;17.63;11.95;;;;;;;;;;5049150;28;20102;-64
2023/12/09 02:47:16;;;;;;;17.35;10.88;;;;;;;;;;5039211;28;21022;-65
2023/12/09 02:49:50;;;;;;;25.33;11.23;;;;;;;;;;5022816;28;20246;-64
2023/12/09 02:52:16;;;;;;;24.65;13.25;;;;;;;;;;5051872;28;20049;-66
2023/12/09 02:54:42;;;;;;;16.58;10.77;;;;;;;;;;5030345;28;20053;-64
2023/12/09 02:57:12;;;;;;;17.27;12.10;;;;;;;;;;5038628;28;20041;-63
2023/12/09 02:59:44;;;;;;;21.27;12.27;;;;;;;;;;5026715;28;20037;-65
2023/12/09 03:02:11;;;;;;;20.83;11.68;;;;;;;;;;5034982;28;20182;-63
2023/12/09 03:04:37;;;;;;;19.23;11.60;;;;;;;;;;5049745;28;20203;-62
2023/12/09 03:07:05;;;;;;;18.77;12.10;;;;;;;;;;5040761;28;20105;-65
2023/12/09 03:09:46;;;;;;;21.58;12.00;;;;;;;;;;5025615;28;20043;-65
2023/12/09 03:12:19;;;;;;;14.88;11.23;;;;;;;;;;5026942;28;20041;-66
2023/12/09 03:14:54;;;;;;;19.42;12.85;;;;;;;;;;5034195;28;20074;-67
2023/12/09 03:17:30;;;;;;;19.67;11.80;;;;;;;;;;5039628;28;20574;-64
2023/12/09 03:19:59;;;;;;;18.60;11.60;;;;;;;;;;5040469;28;20053;-64
2023/12/09 03:22:34;;;;;;;18.83;12.40;;;;;;;;;;5038753;28;20048;-66
2023/12/09 03:25:00;;;;;;;20.52;12.07;;;;;;;;;;5039367;28;20052;-65
2023/12/09 03:27:26;;;;;;;21.20;12.82;;;;;;;;;;5038798;28;20600;-66
2023/12/09 03:29:53;;;;;;;22.20;13.77;;;;;;;;;;5039787;28;20613;-66
2023/12/09 03:32:21;;;;;;;20.20;12.75;;;;;;;;;;5039106;28;20549;-67
2023/12/09 03:34:49;;;;;;;15.35;10.82;;;;;;;;;;5038779;28;20060;-65
2023/12/09 03:37:17;;;;;;;18.77;12.50;;;;;;;;;;5040178;28;20045;-65
2023/12/09 03:39:46;;;;;;;19.73;12.82;;;;;;;;;;5036995;28;20057;-65
2023/12/09 03:42:22;;;;;;;19.55;11.63;;;;;;;;;;5040639;28;20053;-66
2023/12/09 03:44:56;;;;;;;18.92;11.77;;;;;;;;;;5031321;28;20049;-67
2023/12/09 03:47:24;;;;;;;19.83;12.13;;;;;;;;;;5038699;28;20053;-68
2023/12/09 03:49:49;;;;;;;21.15;11.45;;;;;;;;;;5040518;28;20041;-68
2023/12/09 03:52:15;;;;;;;19.58;12.45;;;;;;;;;;5040142;28;20044;-66
2023/12/09 03:54:40;;;;;;;16.50;10.82;;;;;;;;;;5040336;28;20041;-65
2023/12/09 03:57:06;;;;;;;15.07;10.60;;;;;;;;;;5039563;28;20049;-66
2023/12/09 03:59:31;;;;;;;15.35;11.02;;;;;;;;;;5039337;28;20644;-66
2023/12/09 04:01:56;;;;;;;13.85;10.55;;;;;;;;;;5039872;28;20044;-64
2023/12/09 04:04:22;;;;;;;18.70;12.10;;;;;;;;;;5039723;28;20078;-67
2023/12/09 04:06:49;;;;;;;18.42;11.77;;;;;;;;;;5039230;28;20617;-65
2023/12/09 04:09:15;;;;;;;18.05;12.27;;;;;;;;;;5040005;28;20040;-66
2023/12/09 04:11:41;;;;;;;19.40;12.38;;;;;;;;;;5038000;28;20210;-66
2023/12/09 04:14:06;;;;;;;19.55;10.93;;;;;;;;;;5020641;28;20073;-67
2023/12/09 04:16:32;;;;;;;17.38;11.65;;;;;;;;;;5020730;28;20069;-64
2023/12/09 04:18:57;;;;;;;19.17;11.20;;;;;;;;;;5030666;28;20385;-66
2023/12/09 04:21:23;;;;;;;17.98;9.80;;;;;;;;;;5037561;28;20060;-66
2023/12/09 04:23:48;;;;;;;12.85;9.77;;;;;;;;;;5039295;28;20124;-65
2023/12/09 04:26:13;;;;;;;15.02;9.45;;;;;;;;;;5040049;28;20045;-66
2023/12/09 04:28:40;;;;;;;19.38;9.98;;;;;;;;;;5036974;28;20151;-66
2023/12/09 04:31:05;;;;;;;16.35;10.98;;;;;;;;;;5039810;28;20044;-67
2023/12/09 04:33:30;;;;;;;17.00;10.70;;;;;;;;;;5038251;28;20048;-65
2023/12/09 04:35:56;;;;;;;60.25;11.55;;;;;;;;;;5038665;28;20048;-66
2023/12/09 04:38:21;;;;;;;16.42;11.38;;;;;;;;;;5037876;28;20051;-63
2023/12/09 04:40:47;;;;;;;52.17;11.25;;;;;;;;;;5038850;28;20052;-66
2023/12/09 04:43:12;;;;;;;16.48;10.30;;;;;;;;;;5039254;28;20135;-67
2023/12/09 04:45:37;;;;;;;26.88;10.48;;;;;;;;;;5038633;28;20041;-66
2023/12/09 04:48:03;;;;;;;14.55;9.02;;;;;;;;;;5039508;28;20494;-66
2023/12/09 04:50:29;;;;;;;45.42;9.35;;;;;;;;;;5038146;28;20427;-66
2023/12/09 04:52:54;;;;;;;9.73;7.63;;;;;;;;;;5039008;28;20049;-66
2023/12/09 04:55:19;;;;;;;75.50;9.43;;;;;;;;;;5037146;28;20040;-66
2023/12/09 04:57:45;;;;;;;16.77;7.43;;;;;;;;;;5039365;28;20102;-66
2023/12/09 05:00:11;;;;;;;8.88;6.82;;;;;;;;;;5039057;28;20045;-65
2023/12/09 05:02:37;;;;;;;37.88;8.35;;;;;;;;;;5038357;28;20474;-64
2023/12/09 05:05:04;;;;;;;21.58;6.80;;;;;;;;;;5038970;28;20064;-65
2023/12/09 05:07:30;;;;;;;43.88;7.53;;;;;;;;;;5038790;28;20673;-64
2023/12/09 05:09:56;;;;;;;23.45;7.32;;;;;;;;;;5038912;28;20041;-64
2023/12/09 05:12:21;;;;;;;8.75;6.95;;;;;;;;;;5038085;28;20064;-64
2023/12/09 05:14:47;;;;;;;158.73;9.35;;;;;;;;;;5038586;28;20041;-64
2023/12/09 05:17:12;;;;;;;54.15;7.10;;;;;;;;;;5038963;28;20049;-65
2023/12/09 05:19:38;;;;;;;8.52;6.60;;;;;;;;;;5036445;28;20053;-64
2023/12/09 05:22:03;;;;;;;55.28;6.97;;;;;;;;;;5038992;28;20119;-65
2023/12/09 05:24:29;;;;;;;107.93;7.88;;;;;;;;;;5037299;28;20052;-65
2023/12/09 05:26:55;;;;;;;39.13;5.55;;;;;;;;;;5038700;28;20400;-65
2023/12/09 05:29:21;;;;;;;45.22;6.88;;;;;;;;;;5037815;28;20099;-65
2023/12/09 05:31:46;;;;;;;12.48;6.10;;;;;;;;;;5038355;28;20395;-64
2023/12/09 05:34:11;;;;;;;14.02;6.50;;;;;;;;;;5037917;28;20178;-65
2023/12/09 05:36:38;;;;;;;57.85;7.55;;;;;;;;;;5038161;28;20135;-64
2023/12/09 05:39:05;;;;;;;45.63;6.28;;;;;;;;;;5038547;28;20070;-65
2023/12/09 05:41:30;;;;;;;61.72;6.88;;;;;;;;;;5037538;28;20425;-66
2023/12/09 05:43:56;;;;;;;12.43;6.15;;;;;;;;;;5038327;28;20055;-65
2023/12/09 05:46:21;;;;;;;48.50;8.05;;;;;;;;;;5037744;28;20052;-65
2023/12/09 05:48:49;;;;;;;8.23;6.53;;;;;;;;;;5036997;28;20491;-65
2023/12/09 05:51:14;;;;;;;8.18;5.72;;;;;;;;;;5037173;28;20405;-65
2023/12/09 05:53:41;;;;;;;9.45;6.65;;;;;;;;;;5037093;28;20491;-65
2023/12/09 05:56:11;;;;;;;27.98;5.82;;;;;;;;;;5038180;28;20119;-66
2023/12/09 05:58:39;;;;;;;8.15;5.53;;;;;;;;;;5037294;28;20053;-64
2023/12/09 06:01:05;;;;;;;19.33;5.47;;;;;;;;;;5037662;28;20430;-66
2023/12/09 06:03:31;;;;;;;34.50;5.35;;;;;;;;;;5036567;28;20056;-65
2023/12/09 06:05:57;;;;;;;13.05;6.55;;;;;;;;;;5037766;28;20048;-66
2023/12/09 06:08:23;;;;;;;9.25;6.18;;;;;;;;;;5036436;28;20041;-66
2023/12/09 06:10:49;;;;;;;7.18;5.50;;;;;;;;;;5037453;28;20056;-68
2023/12/09 06:13:14;;;;;;;8.23;6.10;;;;;;;;;;5037736;28;20044;-67
2023/12/09 06:15:40;;;;;;;10.43;5.47;;;;;;;;;;5037035;28;20053;-67
2023/12/09 06:18:05;;;;;;;7.97;5.93;;;;;;;;;;5038165;28;20080;-67
2023/12/09 06:20:30;;;;;;;6.70;5.25;;;;;;;;;;5034004;28;20045;-67
2023/12/09 06:22:56;;;;;;;25.15;5.70;;;;;;;;;;5037824;28;20411;-66
2023/12/09 06:25:21;;;;;;;9.95;5.35;;;;;;;;;;5037032;28;20091;-67
2023/12/09 06:27:47;;;;;;;77.88;6.78;;;;;;;;;;5038097;28;20051;-66
2023/12/09 06:30:12;;;;;;;14.77;6.13;;;;;;;;;;5034418;28;20621;-68
2023/12/09 06:32:39;;;;;;;63.50;7.15;;;;;;;;;;5037596;28;20533;-65
2023/12/09 06:35:04;;;;;;;51.60;5.97;;;;;;;;;;5037507;28;20033;-65
2023/12/09 06:37:30;;;;;;;21.15;6.10;;;;;;;;;;5037134;28;20055;-65
2023/12/09 06:39:55;;;;;;;30.80;7.93;;;;;;;;;;5037674;28;20453;-66
2023/12/09 06:42:21;;;;;;;80.07;8.93;;;;;;;;;;5020688;28;20037;-67
2023/12/09 06:44:46;;;;;;;62.47;9.13;;;;;;;;;;5037222;28;20569;-66
2023/12/09 06:47:11;;;;;;;175.57;10.98;;;;;;;;;;5037837;28;20037;-66
2023/12/09 06:49:37;;;;;;;85.45;9.65;;;;;;;;;;5036702;28;20141;-66
2023/12/09 06:52:02;;;;;;;40.25;8.38;;;;;;;;;;5037244;28;20033;-67
2023/12/09 06:54:28;;;;;;;45.67;9.70;;;;;;;;;;5036717;28;20410;-66
2023/12/09 06:56:53;;;;;;;45.22;9.65;;;;;;;;;;5037304;28;20044;-66
2023/12/09 06:59:18;;;;;;;25.95;8.65;;;;;;;;;;5036360;28;20045;-65
2023/12/09 07:01:44;;;;;;;49.38;9.60;;;;;;;;;;5037121;28;20049;-66
2023/12/09 07:04:12;;;;;;;51.33;10.05;;;;;;;;;;5036897;28;20096;-66
2023/12/09 07:06:37;;;;;;;69.78;10.10;;;;;;;;;;5037295;28;20545;-66
2023/12/09 07:09:02;;;;;;;32.30;9.10;;;;;;;;;;5037902;28;20045;-66
2023/12/09 07:11:28;;;;;;;15.65;9.25;;;;;;;;;;5036379;28;20044;-66
2023/12/09 07:13:54;;;;;;;39.03;8.32;;;;;;;;;;5036630;28;20055;-66
2023/12/09 07:16:20;;;;;;;46.60;7.88;;;;;;;;;;5037501;28;20053;-66
2023/12/09 07:18:47;;;;;;;32.05;9.10;;;;;;;;;;5039088;28;20041;-66
2023/12/09 07:21:16;;;;;;;41.10;8.80;;;;;;;;;;5041018;28;20132;-66
2023/12/09 07:23:42;;;;;;;44.38;8.70;;;;;;;;;;5039708;28;20091;-65
2023/12/09 07:26:08;;;;;;;29.50;8.20;;;;;;;;;;5040393;28;20506;-66
2023/12/09 07:28:34;;;;;;;92.18;8.25;;;;;;;;;;5025503;28;20451;-65
2023/12/09 07:31:00;;;;;;;40.85;8.10;;;;;;;;;;5021856;28;20049;-66
2023/12/09 07:33:26;;;;;;;84.40;9.00;;;;;;;;;;5019067;28;20045;-66
2023/12/09 07:35:51;;;;;;;54.03;9.60;;;;;;;;;;5021336;28;20049;-66
2023/12/09 07:38:20;;;;;;;27.15;8.93;;;;;;;;;;5021033;28;20045;-66
2023/12/09 07:40:46;;;;;;;97.18;10.18;;;;;;;;;;5019203;28;20053;-66
2023/12/09 07:43:11;;;;;;;21.15;8.40;;;;;;;;;;5020036;28;20049;-66
2023/12/09 07:45:37;;;;;;;74.80;8.70;;;;;;;;;;5020976;28;20097;-67
2023/12/09 07:48:03;;;;;;;77.28;10.30;;;;;;;;;;5020427;28;20430;-68
2023/12/09 07:50:32;;;;;;;22.23;10.02;;;;;;;;;;5020158;28;20682;-65
2023/12/09 07:52:58;;;;;;;64.15;9.20;;;;;;;;;;5021739;28;20053;-66
2023/12/09 07:55:24;;;;;;;39.15;9.27;;;;;;;;;;5019992;28;20547;-66
2023/12/09 07:57:49;;;;;;;71.30;10.70;;;;;;;;;;5019941;28;20041;-68
2023/12/09 08:00:16;;;;;;;119.03;9.15;;;;;;;;;;5019549;28;20060;-67
2023/12/09 08:02:41;;;;;;;14.13;9.68;;;;;;;;;;5019266;28;20056;-66
2023/12/09 08:05:07;;;;;;;97.10;11.43;;;;;;;;;;5019189;28;20041;-66
2023/12/09 08:07:32;;;;;;;41.00;12.25;;;;;;;;;;5019324;28;20083;-66
2023/12/09 08:09:58;;;;;;;110.20;11.73;;;;;;;;;;5018744;28;20081;-66
2023/12/09 08:12:23;;;;;;;70.97;10.98;;;;;;;;;;5017911;28;20129;-68
2023/12/09 08:14:48;;;;;;;27.50;10.55;;;;;;;;;;5018076;28;20067;-66
2023/12/09 08:17:14;;;;;;;30.85;11.20;;;;;;;;;;5019956;28;20064;-66
2023/12/09 08:19:39;;;;;;;62.17;10.90;;;;;;;;;;5018368;28;20130;-66
2023/12/09 08:22:05;;;;;;;18.65;10.98;;;;;;;;;;5019530;28;20033;-66
2023/12/09 08:24:30;;;;;;;20.98;10.20;;;;;;;;;;5019479;28;20038;-65
2023/12/09 08:26:55;;;;;;;31.52;11.25;;;;;;;;;;5020691;28;20033;-65
2023/12/09 08:29:21;;;;;;;22.13;10.40;;;;;;;;;;5018643;28;20041;-66
2023/12/09 08:31:49;;;;;;;32.60;11.35;;;;;;;;;;5020250;28;20149;-65
2023/12/09 08:34:17;;;;;;;27.00;10.98;;;;;;;;;;5023858;28;20530;-65
2023/12/09 08:36:44;;;;;;;18.92;10.60;;;;;;;;;;5019030;28;20177;-66
2023/12/09 08:39:09;;;;;;;21.42;10.30;;;;;;;;;;5018691;28;21481;-66
2023/12/09 08:41:35;;;;;;;13.25;8.95;;;;;;;;;;5019583;28;20045;-65
2023/12/09 08:44:03;;;;;;;20.42;9.85;;;;;;;;;;5015527;28;20056;-66
2023/12/09 08:46:29;;;;;;;13.82;9.35;;;;;;;;;;5021021;28;20045;-66
2023/12/09 08:48:54;;;;;;;16.25;8.93;;;;;;;;;;5017874;28;20033;-66
2023/12/09 08:51:19;;;;;;;14.57;9.25;;;;;;;;;;5017775;28;20049;-67
2023/12/09 08:53:45;;;;;;;11.80;7.93;;;;;;;;;;5038573;28;20171;-66
2023/12/09 08:56:10;;;;;;;7.85;6.68;;;;;;;;;;5036310;28;20048;-66
2023/12/09 08:58:36;;;;;;;9.40;6.82;;;;;;;;;;5037012;28;20053;-66
2023/12/09 09:01:01;;;;;;;7.68;5.65;;;;;;;;;;5026570;28;20132;-66
2023/12/09 09:03:28;;;;;;;7.40;5.03;;;;;;;;;;5032704;28;20072;-66
2023/12/09 09:05:53;;;;;;;6.30;4.70;;;;;;;;;;5040698;28;20041;-66
2023/12/09 09:08:19;;;;;;;5.72;4.93;;;;;;;;;;5037081;28;20075;-66
2023/12/09 09:10:49;;;;;;;9.85;6.03;;;;;;;;;;5035108;28;20437;-66
2023/12/09 09:13:14;;;;;;;8.23;5.10;;;;;;;;;;5037452;28;20492;-66
2023/12/09 09:15:40;;;;;;;7.75;5.32;;;;;;;;;;5035610;28;20060;-67
2023/12/09 09:18:06;;;;;;;8.20;5.45;;;;;;;;;;5038438;28;20127;-66
2023/12/09 09:20:32;;;;;;;9.07;6.68;;;;;;;;;;5045129;28;20045;-67
2023/12/09 09:22:57;;;;;;;14.07;8.35;;;;;;;;;;5045413;28;20055;-66
2023/12/09 09:25:23;;;;;;;11.93;8.32;;;;;;;;;;5044476;28;20041;-66
2023/12/09 09:27:48;;;;;;;13.07;7.75;;;;;;;;;;5036739;28;20094;-66
2023/12/09 09:30:14;;;;;;;12.60;8.00;;;;;;;;;;5042255;28;20040;-66
2023/12/09 09:32:40;;;;;;;11.63;7.53;;;;;;;;;;5037447;28;20044;-67
2023/12/09 09:35:06;;;;;;;10.07;6.78;;;;;;;;;;5051913;28;20087;-66
2023/12/09 09:37:32;;;;;;;9.13;6.38;;;;;;;;;;5034608;28;20123;-66
2023/12/09 09:39:57;;;;;;;11.07;6.80;;;;;;;;;;5044706;28;20128;-66
2023/12/09 09:42:25;;;;;;;7.78;5.85;;;;;;;;;;5042407;28;20048;-66
2023/12/09 09:45:05;;;;;;;13.10;7.60;;;;;;;;;;5044518;28;21820;-66
2023/12/09 09:47:36;;;;;;;10.40;5.75;;;;;;;;;;5049443;28;20056;-66
2023/12/09 09:50:04;;;;;;;7.43;5.40;;;;;;;;;;5045391;28;20408;-66
2023/12/09 09:52:30;;;;;;;7.55;5.53;;;;;;;;;;5036130;28;20076;-66
2023/12/09 09:54:58;;;;;;;7.18;4.50;;;;;;;;;;5046332;28;20047;-66
2023/12/09 09:57:23;;;;;;;6.10;4.55;;;;;;;;;;5044403;28;20161;-66
2023/12/09 09:59:49;;;;;;;4.57;3.92;;;;;;;;;;5037537;28;20519;-65
2023/12/09 10:02:20;;;;;;;6.53;4.30;;;;;;;;;;5040726;28;20052;-65
2023/12/09 10:04:46;;;;;;;6.03;4.75;;;;;;;;;;5038901;28;20037;-65
2023/12/09 10:07:12;;;;;;;8.52;4.75;;;;;;;;;;5042519;28;20045;-65
2023/12/09 10:09:37;;;;;;;6.22;4.82;;;;;;;;;;5037173;28;20531;-66
2023/12/09 10:12:03;;;;;;;5.15;4.65;;;;;;;;;;5038474;28;20040;-65
2023/12/09 10:14:28;;;;;;;6.82;5.15;;;;;;;;;;5038427;28;20406;-65
2023/12/09 10:16:54;;;;;;;4.95;4.45;;;;;;;;;;5041842;28;20036;-65
2023/12/09 10:19:20;;;;;;;7.20;4.68;;;;;;;;;;5038181;28;21040;-69
2023/12/09 10:21:46;;;;;;;5.10;4.60;;;;;;;;;;5044944;28;20045;-65
2023/12/09 10:24:11;;;;;;;5.57;4.68;;;;;;;;;;5037936;28;20045;-65
2023/12/09 10:26:38;;;;;;;5.55;4.60;;;;;;;;;;5039256;28;20059;-65
2023/12/09 10:29:03;;;;;;;6.45;4.88;;;;;;;;;;5039199;28;20128;-64
2023/12/09 10:31:30;;;;;;;6.93;4.75;;;;;;;;;;5040087;28;20132;-66
2023/12/09 10:33:56;;;;;;;6.15;4.95;;;;;;;;;;5052996;28;20136;-66
2023/12/09 10:36:23;;;;;;;6.03;4.07;;;;;;;;;;5048911;28;20124;-65
2023/12/09 10:38:52;;;;;;;5.03;4.40;;;;;;;;;;5038317;28;20550;-66
2023/12/09 10:41:18;;;;;;;4.75;3.97;;;;;;;;;;5057314;28;20040;-66
2023/12/09 10:43:43;;;;;;;4.60;4.05;;;;;;;;;;5054646;28;20078;-66
2023/12/09 10:46:09;;;;;;;6.47;4.05;;;;;;;;;;5053418;28;20090;-65
2023/12/09 10:48:34;;;;;;;8.90;4.63;;;;;;;;;;5049278;28;20045;-66
2023/12/09 10:51:01;;;;;;;3.35;3.03;;;;;;;;;;5057235;28;20048;-65
2023/12/09 10:53:26;;;;;;;5.55;3.65;;;;;;;;;;5054655;28;20056;-67
2023/12/09 10:55:52;;;;;;;3.97;3.58;;;;;;;;;;5060134;28;20052;-67
2023/12/09 10:58:19;;;;;;;4.95;4.00;;;;;;;;;;5053037;28;20483;-66
2023/12/09 11:00:45;;;;;;;4.70;3.50;;;;;;;;;;5047037;28;20136;-65
2023/12/09 11:03:11;;;;;;;4.25;3.75;;;;;;;;;;5044259;28;20052;-68
2023/12/09 11:05:46;;;;;;;4.07;3.40;;;;;;;;;;5043883;28;21161;-68
2023/12/09 11:08:12;;;;;;;4.22;3.55;;;;;;;;;;5049933;28;20071;-66
2023/12/09 11:10:39;;;;;;;4.05;3.60;;;;;;;;;;5051349;28;20037;-66
2023/12/09 11:13:05;;;;;;;3.72;3.25;;;;;;;;;;5044929;28;20098;-66
2023/12/09 11:15:35;;;;;;;5.47;4.00;;;;;;;;;;5038935;28;20044;-66
2023/12/09 11:18:09;;;;;;;4.07;3.65;;;;;;;;;;5038901;28;20040;-65
2023/12/09 11:20:40;;;;;;;5.35;3.75;;;;;;;;;;5042939;28;20048;-67
2023/12/09 11:23:11;;;;;;;4.53;4.07;;;;;;;;;;5045039;28;20040;-68
2023/12/09 11:25:43;;;;;;;5.15;4.25;;;;;;;;;;5043027;28;20725;-66
2023/12/09 11:28:11;;;;;;;5.43;4.00;;;;;;;;;;5034381;28;20923;-68
2023/12/09 11:30:40;;;;;;;6.57;4.20;;;;;;;;;;5022995;28;20057;-66
2023/12/09 11:33:06;;;;;;;5.80;4.28;;;;;;;;;;5039557;28;20044;-67
2023/12/09 11:35:33;;;;;;;5.20;3.65;;;;;;;;;;5055464;28;20037;-66
2023/12/09 11:37:59;;;;;;;8.85;4.40;;;;;;;;;;5049222;28;20036;-67
2023/12/09 11:40:30;;;;;;;6.03;4.32;;;;;;;;;;5058783;28;20049;-68
2023/12/09 11:43:00;;;;;;;7.45;4.78;;;;;;;;;;5055334;28;20048;-66
2023/12/09 11:45:29;;;;;;;6.00;4.90;;;;;;;;;;5058779;28;20044;-68
2023/12/09 11:47:54;;;;;;;7.43;4.22;;;;;;;;;;5058486;28;20063;-65
2023/12/09 11:50:20;;;;;;;7.75;5.10;;;;;;;;;;5045895;28;20053;-67
2023/12/09 11:52:49;;;;;;;6.32;4.88;;;;;;;;;;5051533;28;20392;-68
2023/12/09 11:55:17;;;;;;;5.80;4.50;;;;;;;;;;5059674;28;20040;-66
2023/12/09 11:57:43;;;;;;;6.10;4.43;;;;;;;;;;5056967;28;20543;-66
2023/12/09 12:00:12;;;;;;;7.28;5.15;;;;;;;;;;5054288;28;20055;-66
2023/12/09 12:02:39;;;;;;;8.38;4.57;;;;;;;;;;5055077;28;20048;-66
2023/12/09 12:05:09;;;;;;;6.80;4.78;;;;;;;;;;5055003;28;20061;-66
2023/12/09 12:07:35;;;;;;;5.60;4.22;;;;;;;;;;5053989;28;20049;-67
2023/12/09 12:10:08;;;;;;;7.30;5.00;;;;;;;;;;5053884;28;20047;-65
2023/12/09 12:12:34;;;;;;;6.82;4.88;;;;;;;;;;5054131;28;20131;-70
2023/12/09 12:15:00;;;;;;;6.75;5.03;;;;;;;;;;5054956;28;20523;-65
2023/12/09 12:17:28;;;;;;;7.47;5.30;;;;;;;;;;5054963;28;20037;-66
2023/12/09 12:19:53;;;;;;;6.85;5.03;;;;;;;;;;5058478;28;20057;-66
2023/12/09 12:22:18;;;;;;;5.15;4.07;;;;;;;;;;5057273;28;20068;-66
2023/12/09 12:24:45;;;;;;;7.18;5.20;;;;;;;;;;5052050;28;20063;-67
2023/12/09 12:27:10;;;;;;;7.35;4.13;;;;;;;;;;5048521;28;20041;-66
2023/12/09 12:29:39;;;;;;;5.97;4.35;;;;;;;;;;5045175;28;20391;-68
2023/12/09 12:32:06;;;;;;;6.22;4.25;;;;;;;;;;5050024;28;20060;-67
2023/12/09 12:34:31;;;;;;;6.82;4.80;;;;;;;;;;5045118;28;20072;-66
2023/12/09 12:36:57;;;;;;;6.75;4.25;;;;;;;;;;5051157;28;20111;-66
2023/12/09 12:39:23;;;;;;;8.80;4.10;;;;;;;;;;5056838;28;20691;-67
2023/12/09 12:41:48;;;;;;;4.32;3.08;;;;;;;;;;5048792;28;20095;-65
2023/12/09 12:44:14;;;;;;;4.55;3.60;;;;;;;;;;5046552;28;20033;-66
2023/12/09 12:46:40;;;;;;;7.70;3.22;;;;;;;;;;5058154;28;20064;-68
2023/12/09 12:49:05;;;;;;;5.05;3.42;;;;;;;;;;5057768;28;20459;-68
2023/12/09 12:51:31;;;;;;;4.80;3.10;;;;;;;;;;5057443;28;20036;-65
2023/12/09 12:53:56;;;;;;;3.65;2.90;;;;;;;;;;5057887;28;20580;-66
2023/12/09 12:56:21;;;;;;;3.70;2.70;;;;;;;;;;5052467;28;20051;-67
2023/12/09 12:58:47;;;;;;;2.47;2.28;;;;;;;;;;5058278;28;20044;-68
2023/12/09 13:01:12;;;;;;;4.82;3.45;;;;;;;;;;5049759;28;20387;-67
2023/12/09 13:03:38;;;;;;;5.25;3.83;;;;;;;;;;5052546;28;20044;-66
2023/12/09 13:06:06;;;;;;;5.35;3.33;;;;;;;;;;5056544;28;20052;-66
2023/12/09 13:08:31;;;;;;;7.97;3.22;;;;;;;;;;5058186;28;20394;-65
2023/12/09 13:10:57;;;;;;;4.10;3.30;;;;;;;;;;5054607;28;20042;-65
2023/12/09 13:13:23;;;;;;;5.95;3.92;;;;;;;;;;5056933;28;20720;-66
2023/12/09 13:15:49;;;;;;;11.75;3.90;;;;;;;;;;5055610;28;20102;-68
2023/12/09 13:18:15;;;;;;;5.80;3.53;;;;;;;;;;5049288;28;21010;-67
2023/12/09 13:20:45;;;;;;;5.15;3.58;;;;;;;;;;5057912;28;20055;-65
2023/12/09 13:23:12;;;;;;;4.57;3.47;;;;;;;;;;5056834;28;20773;-67
2023/12/09 13:25:37;;;;;;;3.47;2.80;;;;;;;;;;5046730;28;20053;-68
2023/12/09 13:28:03;;;;;;;2.15;1.95;;;;;;;;;;5041605;28;20045;-66
2023/12/09 13:30:29;;;;;;;5.18;3.75;;;;;;;;;;5042012;28;20051;-67
2023/12/09 13:33:00;;;;;;;5.95;3.85;;;;;;;;;;5042509;28;20135;-67
2023/12/09 13:35:26;;;;;;;4.20;3.42;;;;;;;;;;5049191;28;20132;-68
2023/12/09 13:37:52;;;;;;;3.15;2.72;;;;;;;;;;5057203;28;20052;-68
2023/12/09 13:40:17;;;;;;;5.75;4.13;;;;;;;;;;5050601;28;20052;-65
2023/12/09 13:42:42;;;;;;;3.22;2.83;;;;;;;;;;5057167;28;20048;-65
2023/12/09 13:45:09;;;;;;;7.90;4.95;;;;;;;;;;5056050;28;20045;-67
2023/12/09 13:47:34;;;;;;;6.72;4.72;;;;;;;;;;5057475;28;20059;-66
2023/12/09 13:50:00;;;;;;;6.50;4.43;;;;;;;;;;5047906;28;20586;-65
2023/12/09 13:52:32;;;;;;;4.57;3.47;;;;;;;;;;5053615;28;20399;-66
2023/12/09 13:54:58;;;;;;;6.80;4.25;;;;;;;;;;5042913;28;20051;-68
2023/12/09 13:57:23;;;;;;;7.10;4.57;;;;;;;;;;5046163;28;20033;-66
2023/12/09 13:59:49;;;;;;;6.70;4.53;;;;;;;;;;5044497;28;20052;-68
2023/12/09 14:02:14;;;;;;;7.47;4.50;;;;;;;;;;5048952;28;20041;-67
2023/12/09 14:04:40;;;;;;;8.10;5.00;;;;;;;;;;5055275;28;20766;-65
2023/12/09 14:07:05;;;;;;;6.60;5.15;;;;;;;;;;5057158;28;20055;-66
2023/12/09 14:09:31;;;;;;;7.13;5.28;;;;;;;;;;5043270;28;20039;-66
2023/12/09 14:11:56;;;;;;;10.80;5.57;;;;;;;;;;5054872;28;20048;-66
2023/12/09 14:14:22;;;;;;;6.40;4.68;;;;;;;;;;5046341;28;20954;-66
2023/12/09 14:16:48;;;;;;;8.25;5.55;;;;;;;;;;5043630;28;20557;-67
2023/12/09 14:19:13;;;;;;;8.48;5.38;;;;;;;;;;5044029;28;20049;-66
2023/12/09 14:21:39;;;;;;;9.00;5.00;;;;;;;;;;5046382;28;20048;-66
2023/12/09 14:24:05;;;;;;;10.38;6.07;;;;;;;;;;5042724;28;20101;-66
2023/12/09 14:26:30;;;;;;;10.18;6.18;;;;;;;;;;5046905;28;20068;-69
2023/12/09 14:28:56;;;;;;;8.40;5.88;;;;;;;;;;5047495;28;20087;-66
2023/12/09 14:31:22;;;;;;;13.38;7.78;;;;;;;;;;5043666;28;20040;-67
2023/12/09 14:33:47;;;;;;;14.07;7.82;;;;;;;;;;5023721;28;20041;-66